Terminal Aerodrome Forecast
Issued by NWS Billings, MT

Home | Current Version | Previous Version | Text Only | Print | Product List | Glossary On
Versions: 1 2 3 4 5 6 7 8 9 10 11 12 13 14 15 16
000
FTUS45 KBYZ 151737
TAFBIL
TAF
KBIL 151737Z 1518/1618 24020G30KT P6SM BKN100 OVC200
     FM152300 24013G21KT P6SM SCT100 OVC200
     FM160200 32014KT P6SM OVC100
     FM160600 02008KT P6SM VCSH BKN080
     FM161000 04008KT 2SM -SN BR OVC015
     FM161400 04008KT 3/4SM -SN BR OVC010=

USA.gov is the U.S. government's official web portal to all federal, state and local government web resources and services.